sensor_id;sensor_type;location;lat;lon;timestamp;temperature;humidity
9875;DHT22;4976;46.786;7.632;2022-08-14T08:02:16;22.40;1.00
9875;DHT22;4976;46.786;7.632;2022-08-14T08:04:45;22.80;1.00
9875;DHT22;4976;46.786;7.632;2022-08-14T08:07:13;23.10;1.00
9875;DHT22;4976;46.786;7.632;2022-08-14T08:09:43;23.30;99.90
9875;DHT22;4976;46.786;7.632;2022-08-14T08:12:15;23.50;99.90
9875;DHT22;4976;46.786;7.632;2022-08-14T08:14:43;23.80;99.90
9875;DHT22;4976;46.786;7.632;2022-08-14T08:17:10;24.00;99.90
9875;DHT22;4976;46.786;7.632;2022-08-14T08:19:39;24.10;99.90
9875;DHT22;4976;46.786;7.632;2022-08-14T08:22:06;24.30;99.90
9875;DHT22;4976;46.786;7.632;2022-08-14T08:24:33;24.30;99.90
9875;DHT22;4976;46.786;7.632;2022-08-14T08:27:01;24.20;99.90
9875;DHT22;4976;46.786;7.632;2022-08-14T08:29:28;24.40;99.90
9875;DHT22;4976;46.786;7.632;2022-08-14T08:31:55;24.70;99.90
9875;DHT22;4976;46.786;7.632;2022-08-14T08:34:24;24.90;99.90
9875;DHT22;4976;46.786;7.632;2022-08-14T08:36:52;24.80;99.90
9875;DHT22;4976;46.786;7.632;2022-08-14T08:39:19;24.40;99.90
9875;DHT22;4976;46.786;7.632;2022-08-14T08:41:47;24.10;99.90
9875;DHT22;4976;46.786;7.632;2022-08-14T08:44:14;23.80;99.90
9875;DHT22;4976;46.786;7.632;2022-08-14T08:46:43;23.60;99.90
9875;DHT22;4976;46.786;7.632;2022-08-14T08:49:10;23.50;99.90
9875;DHT22;4976;46.786;7.632;2022-08-14T08:51:37;23.70;99.90
9875;DHT22;4976;46.786;7.632;2022-08-14T08:54:08;23.70;99.90
9875;DHT22;4976;46.786;7.632;2022-08-14T08:56:38;23.90;99.90
9875;DHT22;4976;46.786;7.632;2022-08-14T08:59:19;23.90;99.90
9875;DHT22;4976;46.786;7.632;2022-08-14T09:01:48;23.90;99.90
9875;DHT22;4976;46.786;7.632;2022-08-14T09:04:16;23.90;99.90
9875;DHT22;4976;46.786;7.632;2022-08-14T09:06:44;23.90;99.90
9875;DHT22;4976;46.786;7.632;2022-08-14T09:09:20;24.10;99.90
9875;DHT22;4976;46.786;7.632;2022-08-14T09:11:48;24.30;99.90
9875;DHT22;4976;46.786;7.632;2022-08-14T09:14:17;24.50;99.90
9875;DHT22;4976;46.786;7.632;2022-08-14T09:16:46;24.70;99.90
9875;DHT22;4976;46.786;7.632;2022-08-14T09:19:15;25.10;99.90
9875;DHT22;4976;46.786;7.632;2022-08-14T09:21:44;25.20;99.90
9875;DHT22;4976;46.786;7.632;2022-08-14T09:24:15;25.40;99.90
9875;DHT22;4976;46.786;7.632;2022-08-14T09:26:45;25.40;99.90
9875;DHT22;4976;46.786;7.632;2022-08-14T09:29:14;25.30;99.90
9875;DHT22;4976;46.786;7.632;2022-08-14T09:31:43;25.40;99.90
9875;DHT22;4976;46.786;7.632;2022-08-14T09:34:20;25.50;99.90
9875;DHT22;4976;46.786;7.632;2022-08-14T09:37:09;25.50;99.90
9875;DHT22;4976;46.786;7.632;2022-08-14T09:39:50;25.50;99.90
9875;DHT22;4976;46.786;7.632;2022-08-14T09:42:32;25.60;99.90
9875;DHT22;4976;46.786;7.632;2022-08-14T09:45:12;25.70;99.90
9875;DHT22;4976;46.786;7.632;2022-08-14T09:47:41;25.60;99.90
9875;DHT22;4976;46.786;7.632;2022-08-14T09:50:20;25.60;99.90
9875;DHT22;4976;46.786;7.632;2022-08-14T09:52:50;25.40;99.90
9875;DHT22;4976;46.786;7.632;2022-08-14T09:55:18;25.30;99.90
9875;DHT22;4976;46.786;7.632;2022-08-14T09:57:48;25.40;99.90
9875;DHT22;4976;46.786;7.632;2022-08-14T10:00:16;25.50;99.90
9875;DHT22;4976;46.786;7.632;2022-08-14T10:02:54;25.70;99.90
9875;DHT22;4976;46.786;7.632;2022-08-14T10:05:30;26.00;99.90
9875;DHT22;4976;46.786;7.632;2022-08-14T10:07:58;26.10;99.90
9875;DHT22;4976;46.786;7.632;2022-08-14T10:10:31;25.90;99.90
9875;DHT22;4976;46.786;7.632;2022-08-14T10:13:02;25.80;99.90
9875;DHT22;4976;46.786;7.632;2022-08-14T10:15:44;25.70;99.90
9875;DHT22;4976;46.786;7.632;2022-08-14T10:18:17;25.90;99.90
9875;DHT22;4976;46.786;7.632;2022-08-14T10:20:54;25.90;99.90
9875;DHT22;4976;46.786;7.632;2022-08-14T10:23:25;25.70;99.90
9875;DHT22;4976;46.786;7.632;2022-08-14T10:26:09;25.60;99.90
9875;DHT22;4976;46.786;7.632;2022-08-14T10:28:47;25.60;99.90
9875;DHT22;4976;46.786;7.632;2022-08-14T10:31:30;25.30;99.90
9875;DHT22;4976;46.786;7.632;2022-08-14T10:34:03;25.30;99.90
9875;DHT22;4976;46.786;7.632;2022-08-14T10:36:36;25.40;99.90
9875;DHT22;4976;46.786;7.632;2022-08-14T10:39:29;25.50;99.90
9875;DHT22;4976;46.786;7.632;2022-08-14T10:42:42;25.60;99.90
9875;DHT22;4976;46.786;7.632;2022-08-14T10:45:34;25.60;99.90
9875;DHT22;4976;46.786;7.632;2022-08-14T10:48:13;25.60;99.90
9875;DHT22;4976;46.786;7.632;2022-08-14T10:50:42;25.40;99.90
9875;DHT22;4976;46.786;7.632;2022-08-14T10:53:15;25.40;99.90
9875;DHT22;4976;46.786;7.632;2022-08-14T10:55:43;25.30;99.90
9875;DHT22;4976;46.786;7.632;2022-08-14T10:58:12;25.60;99.90
9875;DHT22;4976;46.786;7.632;2022-08-14T11:00:53;25.50;99.90
9875;DHT22;4976;46.786;7.632;2022-08-14T11:03:21;25.50;99.90
9875;DHT22;4976;46.786;7.632;2022-08-14T11:05:51;25.50;99.90
9875;DHT22;4976;46.786;7.632;2022-08-14T14:57:04;25.10;99.90
9875;DHT22;4976;46.786;7.632;2022-08-14T15:02:52;25.50;99.90
9875;DHT22;4976;46.786;7.632;2022-08-14T15:05:22;25.60;99.90
9875;DHT22;4976;46.786;7.632;2022-08-14T15:07:50;25.40;99.90
9875;DHT22;4976;46.786;7.632;2022-08-14T15:10:20;25.20;99.90
9875;DHT22;4976;46.786;7.632;2022-08-14T15:12:49;25.10;99.90
9875;DHT22;4976;46.786;7.632;2022-08-14T15:15:16;25.20;99.90
9875;DHT22;4976;46.786;7.632;2022-08-14T15:17:43;25.20;99.90
9875;DHT22;4976;46.786;7.632;2022-08-14T15:20:12;25.10;99.90
9875;DHT22;4976;46.786;7.632;2022-08-14T15:22:39;25.00;99.90
9875;DHT22;4976;46.786;7.632;2022-08-14T15:25:09;25.10;99.90
9875;DHT22;4976;46.786;7.632;2022-08-14T15:27:38;25.00;99.90
9875;DHT22;4976;46.786;7.632;2022-08-14T15:30:08;24.90;99.90
9875;DHT22;4976;46.786;7.632;2022-08-14T15:32:36;24.90;99.90
9875;DHT22;4976;46.786;7.632;2022-08-14T15:35:04;24.90;99.90
9875;DHT22;4976;46.786;7.632;2022-08-14T15:37:31;24.70;99.90
9875;DHT22;4976;46.786;7.632;2022-08-14T15:39:59;24.70;99.90
9875;DHT22;4976;46.786;7.632;2022-08-14T15:42:26;24.70;99.90
9875;DHT22;4976;46.786;7.632;2022-08-14T15:44:55;24.80;99.90
9875;DHT22;4976;46.786;7.632;2022-08-14T15:47:23;24.90;99.90
9875;DHT22;4976;46.786;7.632;2022-08-14T15:49:50;25.10;99.90
9875;DHT22;4976;46.786;7.632;2022-08-14T15:52:19;25.10;99.90
9875;DHT22;4976;46.786;7.632;2022-08-14T15:54:47;25.10;99.90
9875;DHT22;4976;46.786;7.632;2022-08-14T15:57:15;25.10;99.90
9875;DHT22;4976;46.786;7.632;2022-08-14T15:59:44;25.00;99.90
9875;DHT22;4976;46.786;7.632;2022-08-14T16:02:30;24.90;99.90
9875;DHT22;4976;46.786;7.632;2022-08-14T16:04:57;25.00;99.90
9875;DHT22;4976;46.786;7.632;2022-08-14T16:07:24;25.10;99.90
9875;DHT22;4976;46.786;7.632;2022-08-14T16:09:52;25.30;99.90
9875;DHT22;4976;46.786;7.632;2022-08-14T16:12:19;25.20;99.90
9875;DHT22;4976;46.786;7.632;2022-08-14T16:14:46;25.10;99.90
9875;DHT22;4976;46.786;7.632;2022-08-14T16:17:13;24.90;99.90
9875;DHT22;4976;46.786;7.632;2022-08-14T16:19:43;24.80;99.90
9875;DHT22;4976;46.786;7.632;2022-08-14T16:24:54;24.80;99.90
9875;DHT22;4976;46.786;7.632;2022-08-14T16:27:22;24.90;99.90
9875;DHT22;4976;46.786;7.632;2022-08-14T16:29:50;25.10;99.90
9875;DHT22;4976;46.786;7.632;2022-08-14T16:32:18;25.00;99.90
9875;DHT22;4976;46.786;7.632;2022-08-14T16:34:46;24.90;99.90
9875;DHT22;4976;46.786;7.632;2022-08-14T16:37:15;25.00;99.90
9875;DHT22;4976;46.786;7.632;2022-08-14T16:39:44;24.90;99.90
9875;DHT22;4976;46.786;7.632;2022-08-14T16:42:12;24.80;99.90
9875;DHT22;4976;46.786;7.632;2022-08-14T16:44:41;24.90;99.90
9875;DHT22;4976;46.786;7.632;2022-08-14T16:47:10;24.90;99.90
9875;DHT22;4976;46.786;7.632;2022-08-14T16:49:39;24.80;99.90
9875;DHT22;4976;46.786;7.632;2022-08-14T16:52:08;24.70;99.90
9875;DHT22;4976;46.786;7.632;2022-08-14T16:54:38;24.70;99.90
9875;DHT22;4976;46.786;7.632;2022-08-14T16:57:15;24.70;99.90
9875;DHT22;4976;46.786;7.632;2022-08-14T16:59:43;24.70;99.90
9875;DHT22;4976;46.786;7.632;2022-08-14T17:02:12;24.60;99.90
9875;DHT22;4976;46.786;7.632;2022-08-14T17:04:39;24.50;99.90
9875;DHT22;4976;46.786;7.632;2022-08-14T17:07:11;24.50;99.90
9875;DHT22;4976;46.786;7.632;2022-08-14T17:09:41;24.50;99.90
9875;DHT22;4976;46.786;7.632;2022-08-14T17:12:11;24.40;99.90
9875;DHT22;4976;46.786;7.632;2022-08-14T17:15:00;24.40;99.90
9875;DHT22;4976;46.786;7.632;2022-08-14T17:17:44;24.20;99.90
9875;DHT22;4976;46.786;7.632;2022-08-14T17:20:18;23.90;99.90
9875;DHT22;4976;46.786;7.632;2022-08-14T17:22:49;23.90;99.90
9875;DHT22;4976;46.786;7.632;2022-08-14T17:25:20;23.80;99.90
9875;DHT22;4976;46.786;7.632;2022-08-14T17:28:09;23.70;99.90
9875;DHT22;4976;46.786;7.632;2022-08-14T17:30:47;23.70;99.90
9875;DHT22;4976;46.786;7.632;2022-08-14T17:33:18;23.60;99.90
9875;DHT22;4976;46.786;7.632;2022-08-14T17:35:45;23.60;99.90
9875;DHT22;4976;46.786;7.632;2022-08-14T17:38:14;23.50;99.90
9875;DHT22;4976;46.786;7.632;2022-08-14T17:40:45;23.50;99.90
9875;DHT22;4976;46.786;7.632;2022-08-14T17:43:33;23.50;99.90
9875;DHT22;4976;46.786;7.632;2022-08-14T17:46:00;23.40;99.90
9875;DHT22;4976;46.786;7.632;2022-08-14T17:48:30;23.30;99.90
9875;DHT22;4976;46.786;7.632;2022-08-14T17:50:57;23.40;99.90
9875;DHT22;4976;46.786;7.632;2022-08-14T17:53:26;23.30;99.90
9875;DHT22;4976;46.786;7.632;2022-08-14T17:55:54;23.30;99.90
9875;DHT22;4976;46.786;7.632;2022-08-14T17:58:22;23.30;99.90
9875;DHT22;4976;46.786;7.632;2022-08-14T18:00:51;23.20;99.90
9875;DHT22;4976;46.786;7.632;2022-08-14T18:03:22;23.10;99.90
9875;DHT22;4976;46.786;7.632;2022-08-14T18:05:51;23.00;99.90
9875;DHT22;4976;46.786;7.632;2022-08-14T18:08:19;22.90;99.90
9875;DHT22;4976;46.786;7.632;2022-08-14T18:10:47;22.90;99.90
9875;DHT22;4976;46.786;7.632;2022-08-14T18:13:14;22.80;99.90
9875;DHT22;4976;46.786;7.632;2022-08-14T18:15:44;22.80;99.90
9875;DHT22;4976;46.786;7.632;2022-08-14T18:18:12;22.80;99.90
9875;DHT22;4976;46.786;7.632;2022-08-14T18:20:40;22.70;99.90
9875;DHT22;4976;46.786;7.632;2022-08-14T18:23:08;22.70;99.90
9875;DHT22;4976;46.786;7.632;2022-08-14T18:25:40;22.60;99.90
9875;DHT22;4976;46.786;7.632;2022-08-14T18:28:12;22.70;99.90
9875;DHT22;4976;46.786;7.632;2022-08-14T18:30:40;22.70;99.90
9875;DHT22;4976;46.786;7.632;2022-08-14T18:33:15;22.70;99.90
9875;DHT22;4976;46.786;7.632;2022-08-14T18:35:44;22.70;99.90
9875;DHT22;4976;46.786;7.632;2022-08-14T18:38:18;22.60;99.90
9875;DHT22;4976;46.786;7.632;2022-08-14T18:40:46;22.60;99.90
9875;DHT22;4976;46.786;7.632;2022-08-14T18:43:39;22.60;99.90
9875;DHT22;4976;46.786;7.632;2022-08-14T18:46:08;22.50;99.90
9875;DHT22;4976;46.786;7.632;2022-08-14T18:48:38;22.40;99.90
9875;DHT22;4976;46.786;7.632;2022-08-14T18:51:07;22.40;99.90
9875;DHT22;4976;46.786;7.632;2022-08-14T18:53:54;22.30;99.90
9875;DHT22;4976;46.786;7.632;2022-08-14T18:56:57;22.40;99.90
9875;DHT22;4976;46.786;7.632;2022-08-14T18:59:37;22.30;99.90
9875;DHT22;4976;46.786;7.632;2022-08-14T19:02:41;22.20;1.00
9875;DHT22;4976;46.786;7.632;2022-08-14T19:05:09;22.10;1.00
9875;DHT22;4976;46.786;7.632;2022-08-14T19:07:36;22.10;1.00
9875;DHT22;4976;46.786;7.632;2022-08-14T19:10:05;22.10;1.00
9875;DHT22;4976;46.786;7.632;2022-08-14T19:13:07;22.10;1.00
9875;DHT22;4976;46.786;7.632;2022-08-14T19:15:38;22.10;1.00
9875;DHT22;4976;46.786;7.632;2022-08-14T19:18:25;22.00;1.00
9875;DHT22;4976;46.786;7.632;2022-08-14T19:20:53;22.00;1.00
9875;DHT22;4976;46.786;7.632;2022-08-14T19:23:23;22.00;1.00
9875;DHT22;4976;46.786;7.632;2022-08-14T19:25:53;22.00;1.00
9875;DHT22;4976;46.786;7.632;2022-08-14T19:28:23;21.80;1.00
9875;DHT22;4976;46.786;7.632;2022-08-14T19:33:59;21.70;1.00
9875;DHT22;4976;46.786;7.632;2022-08-14T19:36:41;21.60;1.00
9875;DHT22;4976;46.786;7.632;2022-08-14T19:39:08;21.60;1.00
9875;DHT22;4976;46.786;7.632;2022-08-14T19:41:36;21.50;1.00
9875;DHT22;4976;46.786;7.632;2022-08-14T19:44:16;21.50;1.00
9875;DHT22;4976;46.786;7.632;2022-08-14T19:46:49;21.50;1.00
9875;DHT22;4976;46.786;7.632;2022-08-14T19:49:17;21.50;1.00
9875;DHT22;4976;46.786;7.632;2022-08-14T19:51:46;21.50;1.00
9875;DHT22;4976;46.786;7.632;2022-08-14T19:54:14;21.60;1.00
9875;DHT22;4976;46.786;7.632;2022-08-14T19:56:42;21.50;1.00
9875;DHT22;4976;46.786;7.632;2022-08-14T19:59:14;21.40;1.00
9875;DHT22;4976;46.786;7.632;2022-08-14T20:01:42;21.30;1.00
9875;DHT22;4976;46.786;7.632;2022-08-14T20:04:19;21.20;1.00
9875;DHT22;4976;46.786;7.632;2022-08-14T20:06:48;21.30;1.00
9875;DHT22;4976;46.786;7.632;2022-08-14T20:09:18;21.20;1.00
9875;DHT22;4976;46.786;7.632;2022-08-14T20:11:48;21.20;99.90
9875;DHT22;4976;46.786;7.632;2022-08-14T20:14:17;21.30;1.00
9875;DHT22;4976;46.786;7.632;2022-08-14T20:16:47;21.20;97.10
9875;DHT22;4976;46.786;7.632;2022-08-14T20:19:21;21.20;4.80
9875;DHT22;4976;46.786;7.632;2022-08-14T20:21:51;21.20;99.90
9875;DHT22;4976;46.786;7.632;2022-08-14T20:24:26;21.10;99.90
9875;DHT22;4976;46.786;7.632;2022-08-14T20:27:16;21.00;99.90
9875;DHT22;4976;46.786;7.632;2022-08-14T20:29:59;21.10;1.00
9875;DHT22;4976;46.786;7.632;2022-08-14T20:32:32;21.00;99.90
9875;DHT22;4976;46.786;7.632;2022-08-14T20:35:01;20.80;99.90
9875;DHT22;4976;46.786;7.632;2022-08-14T20:37:33;20.70;1.00
9875;DHT22;4976;46.786;7.632;2022-08-14T20:40:15;20.50;99.90
9875;DHT22;4976;46.786;7.632;2022-08-14T20:42:48;20.20;1.00
9875;DHT22;4976;46.786;7.632;2022-08-14T20:45:38;20.20;1.00
9875;DHT22;4976;46.786;7.632;2022-08-14T20:48:06;19.90;1.00
9875;DHT22;4976;46.786;7.632;2022-08-14T20:50:35;19.70;1.00
9875;DHT22;4976;46.786;7.632;2022-08-14T20:53:23;19.40;1.00
9875;DHT22;4976;46.786;7.632;2022-08-14T20:55:52;19.20;1.00
9875;DHT22;4976;46.786;7.632;2022-08-14T20:58:35;19.10;1.00
9875;DHT22;4976;46.786;7.632;2022-08-14T21:01:11;19.20;1.00
9875;DHT22;4976;46.786;7.632;2022-08-14T21:03:49;19.10;1.00
9875;DHT22;4976;46.786;7.632;2022-08-14T21:06:19;18.90;1.00
9875;DHT22;4976;46.786;7.632;2022-08-14T21:08:48;18.70;1.00
9875;DHT22;4976;46.786;7.632;2022-08-14T21:11:18;18.60;1.00
9875;DHT22;4976;46.786;7.632;2022-08-14T21:13:46;18.60;22.80
9875;DHT22;4976;46.786;7.632;2022-08-14T21:16:17;18.50;52.90
9875;DHT22;4976;46.786;7.632;2022-08-14T21:18:46;18.40;28.10
9875;DHT22;4976;46.786;7.632;2022-08-14T21:21:17;18.40;42.30
9875;DHT22;4976;46.786;7.632;2022-08-14T21:23:49;18.30;67.40
9875;DHT22;4976;46.786;7.632;2022-08-14T21:26:17;18.40;33.00
9875;DHT22;4976;46.786;7.632;2022-08-14T21:28:45;18.50;13.10
9875;DHT22;4976;46.786;7.632;2022-08-14T21:31:12;18.60;6.80
9875;DHT22;4976;46.786;7.632;2022-08-14T21:33:41;18.70;1.00
9875;DHT22;4976;46.786;7.632;2022-08-14T21:36:09;18.80;2.20
9875;DHT22;4976;46.786;7.632;2022-08-14T21:38:39;18.80;1.00
9875;DHT22;4976;46.786;7.632;2022-08-14T21:41:11;18.80;63.30
9875;DHT22;4976;46.786;7.632;2022-08-14T21:43:48;18.70;54.40
9875;DHT22;4976;46.786;7.632;2022-08-14T21:46:19;18.60;53.00
9875;DHT22;4976;46.786;7.632;2022-08-14T21:48:47;18.70;38.70
9875;DHT22;4976;46.786;7.632;2022-08-14T21:51:15;18.70;16.30
9875;DHT22;4976;46.786;7.632;2022-08-14T21:53:47;18.70;30.50
9875;DHT22;4976;46.786;7.632;2022-08-14T21:56:15;18.60;25.90
9875;DHT22;4976;46.786;7.632;2022-08-14T21:58:43;18.60;28.20
